Sonora, California
Current Conditions -  °F | °C
As of 3:15 AM on Sunday 23 Nov 2014 (Local Time) from KO22 Reporting Station
Clear Clear  
Wind Chill: 36°   Ceiling: Unl
Heat Index: 39°   Visibility: 10mi
Dew Point: 39°   Wind: 5mph
Humidity: 100%   Direction: 350°N
Pressure: 30.18"   Gusts: NA
Location:  37.98°N, 120.38°W
Report Text: KO22 231115Z AUTO 35004KT 10SM CLR 04/04 A3018 RMK AO1
Loading
Personal Weather Stations






























Interactive Weather Map New forecast layout! Learn more

10-Day Weather Forecast

Advertisements
Track Severe Weather on mobile